createdAt,value
2018-03-23T00:01:47.444Z,29.93
2018-03-23T00:04:14.969Z,28.23
2018-03-23T00:06:42.498Z,31.70
2018-03-23T00:09:10.021Z,33.57
2018-03-23T00:11:37.548Z,30.37
2018-03-23T00:14:05.173Z,31.27
2018-03-23T00:16:32.693Z,28.17
2018-03-23T00:19:00.230Z,29.50
2018-03-23T00:21:27.787Z,28.83
2018-03-23T00:23:55.311Z,28.57
2018-03-23T00:26:22.828Z,26.53
2018-03-23T00:28:50.365Z,25.37
2018-03-23T00:31:17.891Z,24.23
2018-03-23T00:33:46.251Z,24.07
2018-03-23T00:36:13.782Z,24.97
2018-03-23T00:38:41.392Z,24.53
2018-03-23T00:41:08.908Z,26.47
2018-03-23T00:43:36.496Z,24.53
2018-03-23T00:46:04.032Z,23.10
2018-03-23T00:48:31.558Z,23.77
2018-03-23T00:50:59.090Z,23.33
2018-03-23T00:53:26.606Z,21.17
2018-03-23T00:55:54.135Z,21.93
2018-03-23T00:58:21.664Z,21.77
2018-03-23T01:00:49.230Z,20.47
2018-03-23T01:03:16.756Z,19.90
2018-03-23T01:05:44.274Z,19.60
2018-03-23T01:08:11.805Z,19.67
2018-03-23T01:10:39.322Z,20.87
2018-03-23T01:13:06.853Z,21.77
2018-03-23T01:15:34.484Z,20.17
2018-03-23T01:18:02.009Z,18.30
2018-03-23T01:20:29.538Z,23.37
2018-03-23T01:22:57.129Z,27.10
2018-03-23T01:25:24.648Z,23.90
2018-03-23T01:27:52.183Z,26.43
2018-03-23T01:30:19.711Z,23.63
2018-03-23T01:32:47.245Z,25.73
2018-03-23T01:35:14.790Z,25.80
2018-03-23T01:37:42.423Z,27.37
2018-03-23T01:40:09.983Z,26.07
2018-03-23T01:42:37.497Z,25.40
2018-03-23T01:45:05.025Z,28.27
2018-03-23T01:47:32.561Z,26.93
2018-03-23T01:50:00.076Z,28.23
2018-03-23T01:52:27.682Z,27.13
2018-03-23T01:54:55.240Z,27.27
2018-03-23T01:57:22.765Z,27.93
2018-03-23T01:59:50.362Z,28.07
2018-03-23T02:02:17.879Z,32.03
2018-03-23T02:04:45.401Z,28.33
2018-03-23T02:07:12.934Z,30.23
2018-03-23T02:09:40.449Z,28.43
2018-03-23T02:12:07.976Z,29.47
2018-03-23T02:14:35.512Z,27.70
2018-03-23T02:17:03.043Z,28.67
2018-03-23T02:19:30.601Z,27.00
2018-03-23T02:21:58.161Z,29.57
2018-03-23T02:24:25.757Z,29.77
2018-03-23T02:26:53.282Z,27.50
2018-03-23T02:29:20.982Z,27.73
2018-03-23T02:31:48.508Z,26.80
2018-03-23T02:34:16.102Z,27.00
2018-03-23T02:36:43.659Z,29.73
2018-03-23T02:39:11.187Z,26.57
2018-03-23T02:41:38.714Z,28.47
2018-03-23T02:44:06.263Z,28.23
2018-03-23T02:46:33.792Z,28.47
2018-03-23T02:49:01.324Z,25.93
2018-03-23T02:51:28.851Z,26.90
2018-03-23T02:53:56.375Z,27.20
2018-03-23T02:56:23.889Z,27.87
2018-03-23T02:58:51.413Z,27.63
2018-03-23T03:01:19.071Z,26.60
2018-03-23T03:03:46.632Z,26.80
2018-03-23T03:06:14.152Z,28.40
2018-03-23T03:08:41.680Z,27.57
2018-03-23T03:11:09.213Z,29.33
2018-03-23T03:13:36.854Z,25.93
2018-03-23T03:16:04.384Z,28.90
2018-03-23T03:18:31.929Z,26.37
2018-03-23T03:20:59.520Z,27.40
2018-03-23T03:23:27.044Z,29.23
2018-03-23T03:25:54.590Z,25.00
2018-03-23T03:28:22.149Z,29.17
2018-03-23T03:30:49.710Z,24.80
2018-03-23T03:33:17.244Z,30.10
2018-03-23T03:35:44.777Z,26.97
2018-03-23T03:38:12.293Z,28.27
2018-03-23T03:40:39.914Z,28.87
2018-03-23T03:43:07.449Z,24.80
2018-03-23T03:45:35.032Z,28.53
2018-03-23T03:48:02.570Z,28.23
2018-03-23T03:50:30.099Z,27.40
2018-03-23T03:52:57.638Z,29.27
2018-03-23T03:55:25.281Z,31.00
2018-03-23T03:57:52.810Z,25.83
2018-03-23T04:00:20.321Z,29.47
2018-03-23T04:02:47.857Z,25.57
2018-03-23T04:05:15.385Z,26.03
2018-03-23T04:07:42.906Z,25.20
2018-03-23T04:10:10.537Z,27.50
2018-03-23T04:12:38.097Z,25.90
2018-03-23T04:15:05.623Z,23.87
2018-03-23T04:17:33.216Z,22.63
2018-03-23T04:20:00.739Z,23.00
2018-03-23T04:22:28.263Z,25.80
2018-03-23T04:24:55.794Z,22.13
2018-03-23T04:27:23.344Z,22.90
2018-03-23T04:29:50.876Z,23.67
2018-03-23T04:32:18.393Z,24.87
2018-03-23T04:34:45.930Z,25.90
2018-03-23T04:37:13.461Z,22.93
2018-03-23T04:39:40.995Z,22.13
2018-03-23T04:42:08.541Z,22.23
2018-03-23T04:44:36.097Z,25.00
2018-03-23T04:47:03.627Z,23.17
2018-03-23T04:49:31.186Z,24.30
2018-03-23T04:51:58.724Z,24.97
2018-03-23T04:54:26.245Z,22.67
2018-03-23T04:56:53.793Z,26.50
2018-03-23T04:59:21.310Z,25.30
2018-03-23T05:01:48.856Z,25.70
2018-03-23T05:04:16.370Z,27.83
2018-03-23T05:06:43.899Z,27.27
2018-03-23T05:09:11.432Z,23.47
2018-03-23T05:11:39.015Z,24.57
2018-03-23T05:14:06.546Z,23.70
2018-03-23T05:16:34.070Z,26.67
2018-03-23T05:19:01.589Z,24.57
2018-03-23T05:21:29.120Z,22.20
2018-03-23T05:23:56.687Z,26.57
2018-03-23T05:26:24.245Z,23.90
2018-03-23T05:28:51.806Z,23.23
2018-03-23T05:31:19.366Z,24.50
2018-03-23T05:33:46.886Z,23.53
2018-03-23T05:36:14.400Z,24.53
2018-03-23T05:38:41.946Z,24.23
2018-03-23T05:41:09.461Z,28.00
2018-03-23T05:43:37.091Z,24.23
2018-03-23T05:46:04.617Z,23.07
2018-03-23T05:48:32.144Z,26.63
2018-03-23T05:50:59.676Z,23.57
2018-03-23T05:53:27.198Z,24.27
2018-03-23T05:55:54.750Z,24.17
2018-03-23T05:58:22.323Z,25.00
2018-03-23T06:00:49.915Z,23.70
2018-03-23T06:03:17.470Z,23.90
2018-03-23T06:05:45.003Z,21.97
2018-03-23T06:08:12.520Z,22.33
2018-03-23T06:10:40.047Z,23.10
2018-03-23T06:13:07.582Z,28.67
2018-03-23T06:15:35.172Z,26.37
2018-03-23T06:18:02.708Z,26.23
2018-03-23T06:20:30.225Z,25.00
2018-03-23T06:22:57.848Z,24.30
2018-03-23T06:25:25.377Z,24.50
2018-03-23T06:27:52.902Z,25.47
2018-03-23T06:30:20.532Z,27.37
2018-03-23T06:32:48.057Z,27.70
2018-03-23T06:35:15.576Z,26.90
2018-03-23T06:37:43.111Z,26.20
2018-03-23T06:40:10.638Z,28.40
2018-03-23T06:42:38.152Z,28.37
2018-03-23T06:45:05.684Z,28.10
2018-03-23T06:47:33.215Z,30.27
2018-03-23T06:50:00.807Z,30.40
2018-03-23T06:52:28.332Z,30.13
2018-03-23T06:54:55.850Z,31.40
2018-03-23T06:57:23.386Z,34.83
2018-03-23T06:59:50.901Z,29.97
2018-03-23T07:02:18.432Z,31.00
2018-03-23T07:04:46.051Z,32.27
2018-03-23T07:07:13.588Z,30.27
2018-03-23T07:09:41.109Z,27.33
2018-03-23T07:12:08.749Z,27.50
2018-03-23T07:14:36.273Z,23.83
2018-03-23T07:17:03.867Z,25.47
2018-03-23T07:19:31.390Z,23.40
2018-03-23T07:21:58.921Z,22.63
2018-03-23T07:24:26.445Z,24.73
2018-03-23T07:26:53.989Z,29.77
2018-03-23T07:29:21.559Z,28.47
2018-03-23T07:31:49.090Z,29.87
2018-03-23T07:34:16.686Z,26.67
2018-03-23T07:36:44.226Z,33.60
2018-03-23T07:39:11.758Z,32.37
2018-03-23T07:41:39.287Z,35.00
2018-03-23T07:44:06.920Z,35.17
2018-03-23T07:46:34.450Z,33.70
2018-03-23T07:49:01.969Z,33.77
2018-03-23T07:51:29.505Z,32.50
2018-03-23T07:53:57.025Z,34.60
2018-03-23T07:56:24.622Z,32.37
2018-03-23T07:58:52.168Z,28.30
2018-03-23T08:01:19.694Z,29.43
2018-03-23T08:03:47.302Z,30.80
2018-03-23T08:06:14.830Z,30.97
2018-03-23T08:08:42.363Z,31.80
2018-03-23T08:11:09.998Z,31.17
2018-03-23T08:13:37.541Z,31.23
2018-03-23T08:16:05.081Z,30.77
2018-03-23T08:18:32.602Z,35.17
2018-03-23T08:21:00.163Z,35.60
2018-03-23T08:23:27.718Z,35.70
2018-03-23T08:25:55.342Z,35.40
2018-03-23T08:28:22.871Z,37.27
2018-03-23T08:30:50.402Z,37.47
2018-03-23T08:33:17.921Z,37.93
2018-03-23T08:35:45.446Z,34.97
2018-03-23T08:38:12.977Z,36.13
2018-03-23T08:40:40.500Z,33.70
2018-03-23T08:43:08.033Z,35.90
2018-03-23T08:45:35.563Z,38.03
2018-03-23T08:48:03.112Z,37.17
2018-03-23T08:50:30.742Z,37.53
2018-03-23T08:52:58.271Z,32.77
2018-03-23T08:55:25.859Z,35.90
2018-03-23T08:57:53.417Z,33.70
2018-03-23T09:00:20.952Z,38.33
2018-03-23T09:02:48.539Z,37.20
2018-03-23T09:05:16.073Z,34.47
2018-03-23T09:07:43.593Z,37.17
2018-03-23T09:10:11.121Z,35.47
2018-03-23T09:12:38.676Z,35.50
2018-03-23T09:15:06.207Z,35.77
2018-03-23T09:17:33.739Z,35.30
2018-03-23T09:20:01.253Z,33.10
2018-03-23T09:22:28.790Z,36.40
2018-03-23T09:24:56.314Z,34.63
2018-03-23T09:27:23.838Z,34.20
2018-03-23T09:29:51.364Z,40.00
2018-03-23T09:32:18.884Z,37.43
2018-03-23T09:34:46.413Z,35.33
2018-03-23T09:37:13.968Z,36.93
2018-03-23T09:39:41.498Z,35.93
2018-03-23T09:42:09.020Z,36.07
2018-03-23T09:44:36.551Z,40.10
2018-03-23T09:47:04.103Z,41.87
2018-03-23T09:49:31.635Z,35.27
2018-03-23T09:51:59.168Z,35.77
2018-03-23T09:54:26.697Z,34.43
2018-03-23T09:56:54.223Z,33.77
2018-03-23T09:59:21.761Z,30.67
2018-03-23T10:01:49.285Z,31.23
2018-03-23T10:04:16.818Z,31.63
2018-03-23T10:06:44.337Z,35.03
2018-03-23T10:09:11.872Z,32.00
2018-03-23T10:11:39.384Z,32.53
2018-03-23T10:14:06.909Z,30.07
2018-03-23T10:16:34.445Z,33.43
2018-03-23T10:19:01.979Z,29.30
2018-03-23T10:21:29.503Z,30.87
2018-03-23T10:23:57.024Z,29.93
2018-03-23T10:26:24.558Z,31.53
2018-03-23T10:28:52.081Z,38.03
2018-03-23T10:31:19.614Z,31.40
2018-03-23T10:33:47.134Z,35.43
2018-03-23T10:36:14.663Z,34.77
2018-03-23T10:38:42.186Z,32.97
2018-03-23T10:41:09.713Z,34.23
2018-03-23T10:43:37.235Z,34.00
2018-03-23T10:46:04.761Z,38.20
2018-03-23T10:48:32.290Z,36.33
2018-03-23T10:50:59.812Z,36.77
2018-03-23T10:53:27.441Z,34.33
2018-03-23T10:55:54.938Z,33.03
2018-03-23T10:58:22.457Z,33.30
2018-03-23T11:00:55.654Z,32.63
2018-03-23T11:03:23.369Z,33.80
2018-03-23T11:05:50.895Z,39.37
2018-03-23T11:08:19.255Z,37.37
2018-03-23T11:10:46.803Z,37.77
2018-03-23T11:13:14.342Z,34.97
2018-03-23T11:15:41.904Z,35.63
2018-03-23T11:18:09.426Z,34.47
2018-03-23T11:20:36.952Z,36.90
2018-03-23T11:23:04.510Z,30.67
2018-03-23T11:25:32.045Z,33.73
2018-03-23T11:27:59.598Z,31.73
2018-03-23T11:30:27.130Z,32.40
2018-03-23T11:32:54.657Z,29.50
2018-03-23T11:35:22.177Z,32.57
2018-03-23T11:37:49.702Z,32.03
2018-03-23T11:40:17.222Z,30.47
2018-03-23T11:42:44.761Z,33.20
2018-03-23T11:45:12.282Z,32.43
2018-03-23T11:47:39.831Z,35.33
2018-03-23T11:50:07.374Z,36.73
2018-03-23T11:52:34.902Z,39.40
2018-03-23T11:55:02.459Z,35.77
2018-03-23T11:57:29.986Z,38.90
2018-03-23T11:59:57.538Z,39.70
2018-03-23T12:02:25.073Z,37.27
2018-03-23T12:04:52.617Z,31.07
2018-03-23T12:07:20.146Z,34.93
2018-03-23T12:09:47.683Z,32.13
2018-03-23T12:12:15.205Z,35.63
2018-03-23T12:14:42.772Z,32.67
2018-03-23T12:17:10.322Z,32.63
2018-03-23T12:19:37.862Z,50.93
2018-03-23T12:22:05.383Z,32.47
2018-03-23T12:24:32.901Z,31.30
2018-03-23T12:27:00.435Z,29.03
2018-03-23T12:29:27.960Z,27.27
2018-03-23T12:31:55.499Z,29.80
2018-03-23T12:34:23.034Z,36.33
2018-03-23T12:36:50.564Z,37.20
2018-03-23T12:39:18.109Z,42.63
2018-03-23T12:41:45.658Z,38.20
2018-03-23T12:44:13.202Z,37.83
2018-03-23T12:46:40.743Z,40.50
2018-03-23T12:49:08.299Z,39.03
2018-03-23T12:51:35.815Z,37.73
2018-03-23T12:54:03.334Z,43.00
2018-03-23T12:56:30.890Z,36.93
2018-03-23T12:58:58.465Z,38.13
2018-03-23T13:01:25.996Z,36.17
2018-03-23T13:03:53.568Z,36.70
2018-03-23T13:06:21.133Z,36.03
2018-03-23T13:08:48.672Z,36.20
2018-03-23T13:11:16.237Z,37.20
2018-03-23T13:13:43.768Z,36.27
2018-03-23T13:16:11.290Z,33.90
2018-03-23T13:18:38.823Z,35.30
2018-03-23T13:21:06.425Z,31.27
2018-03-23T13:23:34.007Z,33.27
2018-03-23T13:26:01.533Z,35.30
2018-03-23T13:28:29.062Z,33.63
2018-03-23T13:30:56.610Z,33.07
2018-03-23T13:33:24.144Z,33.50
2018-03-23T13:35:51.690Z,34.73
2018-03-23T13:38:19.267Z,33.20
2018-03-23T13:40:46.794Z,35.13
2018-03-23T13:43:14.349Z,32.40
2018-03-23T13:45:41.945Z,32.07
2018-03-23T13:48:09.507Z,34.97
2018-03-23T13:50:37.061Z,33.03
2018-03-23T13:53:04.606Z,35.40
2018-03-23T13:55:32.151Z,36.10
2018-03-23T13:57:59.676Z,36.27
2018-03-23T14:00:32.849Z,33.37
2018-03-23T14:03:00.398Z,35.20
2018-03-23T14:05:27.917Z,34.77
2018-03-23T14:07:55.447Z,38.77
2018-03-23T14:10:22.969Z,32.27
2018-03-23T14:12:50.499Z,33.27
2018-03-23T14:15:18.048Z,33.27
2018-03-23T14:17:45.675Z,31.40
2018-03-23T14:20:13.216Z,33.63
2018-03-23T14:22:40.794Z,31.17
2018-03-23T14:25:08.349Z,29.97
2018-03-23T14:27:35.901Z,31.97
2018-03-23T14:30:03.448Z,32.03
2018-03-23T14:32:30.974Z,30.30
2018-03-23T14:34:58.493Z,30.73
2018-03-23T14:37:26.030Z,36.83
2018-03-23T14:39:53.583Z,29.90
2018-03-23T14:42:21.113Z,30.83
2018-03-23T14:44:48.646Z,28.80
2018-03-23T14:47:16.300Z,30.33
2018-03-23T14:49:43.844Z,31.03
2018-03-23T14:52:11.380Z,31.77
2018-03-23T14:54:38.910Z,28.80
2018-03-23T14:57:06.439Z,30.47
2018-03-23T14:59:34.782Z,26.97
2018-03-23T15:02:02.296Z,27.97
2018-03-23T15:04:29.822Z,29.43
2018-03-23T15:06:57.366Z,29.60
2018-03-23T15:09:24.885Z,27.53
2018-03-23T15:11:52.485Z,26.17
2018-03-23T15:14:20.075Z,27.33
2018-03-23T15:16:47.632Z,28.20
2018-03-23T15:19:15.191Z,28.30
2018-03-23T15:21:42.774Z,29.83
2018-03-23T15:24:10.282Z,33.20
2018-03-23T15:26:37.807Z,31.80
2018-03-23T15:29:05.360Z,30.33
2018-03-23T15:31:32.888Z,31.43
2018-03-23T15:34:00.414Z,30.00
2018-03-23T15:36:27.933Z,32.00
2018-03-23T15:38:55.505Z,29.60
2018-03-23T15:41:23.033Z,33.40
2018-03-23T15:43:50.587Z,30.03
2018-03-23T15:46:18.117Z,32.37
2018-03-23T15:48:45.657Z,34.87
2018-03-23T15:51:13.204Z,32.23
2018-03-23T15:53:40.792Z,32.17
2018-03-23T15:56:08.324Z,32.27
2018-03-23T15:58:35.842Z,31.17
2018-03-23T16:01:03.376Z,33.30
2018-03-23T16:03:30.901Z,33.33
2018-03-23T16:05:58.494Z,31.37
2018-03-23T16:08:26.019Z,30.77
2018-03-23T16:10:53.542Z,33.80
2018-03-23T16:13:21.151Z,31.63
2018-03-23T16:15:48.638Z,32.20
2018-03-23T16:18:16.157Z,32.03
2018-03-23T16:20:43.753Z,32.40
2018-03-23T16:23:11.308Z,32.30
2018-03-23T16:25:38.872Z,30.40
2018-03-23T16:28:06.384Z,33.57
2018-03-23T16:30:34.607Z,28.87
2018-03-23T16:33:02.133Z,29.77
2018-03-23T16:35:29.830Z,28.93
2018-03-23T16:37:57.353Z,31.83
2018-03-23T16:40:24.874Z,29.20
2018-03-23T16:42:52.405Z,31.40
2018-03-23T16:45:19.969Z,31.00
2018-03-23T16:47:47.530Z,32.27
2018-03-23T16:50:15.057Z,33.10
2018-03-23T16:52:42.620Z,32.20
2018-03-23T16:55:10.144Z,30.17
2018-03-23T16:57:37.890Z,30.03
2018-03-23T17:00:05.634Z,31.47
2018-03-23T17:02:33.297Z,32.97
2018-03-23T17:05:00.855Z,33.37
2018-03-23T17:07:28.382Z,31.57
2018-03-23T17:09:55.960Z,31.33
2018-03-23T17:12:23.537Z,32.03
2018-03-23T17:14:51.115Z,31.43
2018-03-23T17:17:18.652Z,32.50
2018-03-23T17:19:46.182Z,35.30
2018-03-23T17:22:13.710Z,34.90
2018-03-23T17:24:41.236Z,36.53
2018-03-23T17:27:08.757Z,36.97
2018-03-23T17:29:36.293Z,34.77
2018-03-23T17:32:03.856Z,36.93
2018-03-23T17:34:31.395Z,31.73
2018-03-23T17:36:58.931Z,37.60
2018-03-23T17:39:26.458Z,35.87
2018-03-23T17:41:54.058Z,35.07
2018-03-23T17:44:21.603Z,34.60
2018-03-23T17:46:49.151Z,35.13
2018-03-23T17:49:16.726Z,40.30
2018-03-23T17:51:44.295Z,40.07
2018-03-23T17:54:11.817Z,37.83
2018-03-23T17:56:39.351Z,38.40
2018-03-23T17:59:06.968Z,38.63
2018-03-23T18:01:34.487Z,39.30
2018-03-23T18:04:02.024Z,44.00
2018-03-23T18:06:29.552Z,40.10
2018-03-23T18:08:57.143Z,42.53
2018-03-23T18:11:24.670Z,44.93
2018-03-23T18:13:52.186Z,42.73
2018-03-23T18:16:19.718Z,38.73
2018-03-23T18:18:47.353Z,41.33
2018-03-23T18:21:14.884Z,43.70
2018-03-23T18:23:42.414Z,43.17
2018-03-23T18:26:09.942Z,43.67
2018-03-23T18:28:37.601Z,45.50
2018-03-23T18:31:05.150Z,45.97
2018-03-23T18:33:32.682Z,48.27
2018-03-23T18:36:00.275Z,42.20
2018-03-23T18:38:27.801Z,44.43
2018-03-23T18:40:55.331Z,44.80
2018-03-23T18:43:22.873Z,46.63
2018-03-23T18:45:50.408Z,49.73
2018-03-23T18:48:17.971Z,45.53
2018-03-23T18:50:45.524Z,46.73
2018-03-23T18:53:13.114Z,48.13
2018-03-23T18:55:40.655Z,42.83
2018-03-23T18:58:08.177Z,47.03
2018-03-23T19:00:35.706Z,45.87
2018-03-23T19:03:03.236Z,43.83
2018-03-23T19:05:30.762Z,46.03
2018-03-23T19:07:58.279Z,46.83
2018-03-23T19:10:25.811Z,45.87
2018-03-23T19:12:53.368Z,47.93
2018-03-23T19:15:20.913Z,47.17
2018-03-23T19:17:48.450Z,49.37
2018-03-23T19:20:15.973Z,46.03
2018-03-23T19:22:43.505Z,51.30
2018-03-23T19:25:11.035Z,48.20
2018-03-23T19:27:38.558Z,46.10
2018-03-23T19:30:06.082Z,47.00
2018-03-23T19:32:33.611Z,46.27
2018-03-23T19:35:01.134Z,46.57
2018-03-23T19:37:28.659Z,44.47
2018-03-23T19:39:56.180Z,40.87
2018-03-23T19:42:23.749Z,43.17
2018-03-23T19:44:51.272Z,42.50
2018-03-23T19:47:18.842Z,45.53
2018-03-23T19:49:46.389Z,46.30
2018-03-23T19:52:13.914Z,42.13
2018-03-23T19:54:41.436Z,44.67
2018-03-23T19:57:09.008Z,40.97
2018-03-23T19:59:36.595Z,43.17
2018-03-23T20:02:04.154Z,43.97
2018-03-23T20:04:31.689Z,37.57
2018-03-23T20:06:59.275Z,43.93
2018-03-23T20:09:26.804Z,39.97
2018-03-23T20:11:54.326Z,40.13
2018-03-23T20:14:21.924Z,40.00
2018-03-23T20:16:49.451Z,40.07
2018-03-23T20:19:16.976Z,39.60
2018-03-23T20:21:44.506Z,37.60
2018-03-23T20:24:17.581Z,38.00
2018-03-23T20:26:45.105Z,38.33
2018-03-23T20:29:12.813Z,38.70
2018-03-23T20:31:45.856Z,37.73
2018-03-23T20:34:13.491Z,37.73
2018-03-23T20:36:41.051Z,35.30
2018-03-23T20:39:08.676Z,39.70
2018-03-23T20:41:36.384Z,39.43
2018-03-23T20:44:04.145Z,41.77
2018-03-23T20:46:31.672Z,42.93
2018-03-23T20:48:59.222Z,41.57
2018-03-23T20:51:26.783Z,41.53
2018-03-23T20:53:54.327Z,41.10
2018-03-23T20:56:21.870Z,41.97
2018-03-23T20:58:49.506Z,40.20
2018-03-23T21:01:17.269Z,42.83
2018-03-23T21:03:44.928Z,42.43
2018-03-23T21:06:12.553Z,41.57
2018-03-23T21:08:40.149Z,43.70
2018-03-23T21:11:07.746Z,42.10
2018-03-23T21:13:35.289Z,43.20
2018-03-23T21:16:02.808Z,43.87
2018-03-23T21:18:30.320Z,46.03
2018-03-23T21:20:57.854Z,45.20
2018-03-23T21:23:25.413Z,47.63
2018-03-23T21:25:52.944Z,44.57
2018-03-23T21:28:20.462Z,47.07
2018-03-23T21:30:47.985Z,43.87
2018-03-23T21:33:15.544Z,50.40
2018-03-23T21:35:43.074Z,48.43
2018-03-23T21:38:10.593Z,47.87
2018-03-23T21:40:38.122Z,49.00
2018-03-23T21:43:05.682Z,45.80
2018-03-23T21:45:33.248Z,47.43
2018-03-23T21:48:00.782Z,47.03
2018-03-23T21:50:28.299Z,48.77
2018-03-23T21:52:55.838Z,45.30
2018-03-23T21:55:23.357Z,46.23
2018-03-23T21:57:50.910Z,50.37
2018-03-23T22:00:18.503Z,53.23
2018-03-23T22:02:46.035Z,48.93
2018-03-23T22:05:13.554Z,50.73
2018-03-23T22:07:41.086Z,51.17
2018-03-23T22:10:08.615Z,44.90
2018-03-23T22:12:36.158Z,51.43
2018-03-23T22:15:03.693Z,49.30
2018-03-23T22:17:31.216Z,43.77
2018-03-23T22:19:58.780Z,47.87
2018-03-23T22:22:26.304Z,48.53
2018-03-23T22:24:53.900Z,46.23
2018-03-23T22:27:21.457Z,44.47
2018-03-23T22:29:49.081Z,45.87
2018-03-23T22:32:16.606Z,48.70
2018-03-23T22:34:44.141Z,46.43
2018-03-23T22:37:11.667Z,47.27
2018-03-23T22:39:39.217Z,46.57
2018-03-23T22:42:06.740Z,48.30
2018-03-23T22:44:34.366Z,47.50
2018-03-23T22:47:01.945Z,43.93
2018-03-23T22:49:29.496Z,47.27
2018-03-23T22:51:57.062Z,47.17
2018-03-23T22:54:24.605Z,46.47
2018-03-23T22:56:52.124Z,46.23
2018-03-23T22:59:19.661Z,45.93
2018-03-23T23:01:47.180Z,43.73
2018-03-23T23:04:14.710Z,48.00
2018-03-23T23:06:42.237Z,46.37
2018-03-23T23:09:09.757Z,43.40
2018-03-23T23:11:37.290Z,41.90
2018-03-23T23:14:04.824Z,40.87
2018-03-23T23:16:32.340Z,40.93
2018-03-23T23:18:59.867Z,42.43
2018-03-23T23:21:27.398Z,40.87
2018-03-23T23:23:54.931Z,39.33
2018-03-23T23:26:22.456Z,40.23
2018-03-23T23:28:49.979Z,42.33
2018-03-23T23:31:17.539Z,38.47
2018-03-23T23:33:45.069Z,39.67
2018-03-23T23:36:12.605Z,38.27
2018-03-23T23:38:40.127Z,40.97
2018-03-23T23:41:07.652Z,41.17
2018-03-23T23:43:35.175Z,39.20
2018-03-23T23:46:02.707Z,39.73
2018-03-23T23:48:30.239Z,43.43
2018-03-23T23:50:57.762Z,39.17
2018-03-23T23:53:25.282Z,37.37
2018-03-23T23:55:52.814Z,42.53
2018-03-23T23:58:20.338Z,38.37
